sensor_id;sensor_type;location;lat;lon;timestamp;pressure;altitude;pressure_sealevel;temperature;humidity
16821;BME280;8527;49.740;6.604;2023-07-13T00:04:27;99764.00;;;17.84;63.39
16821;BME280;8527;49.740;6.604;2023-07-13T00:09:31;99769.31;;;17.91;64.28
16821;BME280;8527;49.740;6.604;2023-07-13T00:14:34;99762.47;;;17.95;63.74
16821;BME280;8527;49.740;6.604;2023-07-13T00:19:38;99757.59;;;17.85;64.07
16821;BME280;8527;49.740;6.604;2023-07-13T00:24:40;99757.91;;;17.70;64.11
16821;BME280;8527;49.740;6.604;2023-07-13T00:29:41;99753.38;;;17.64;65.09
16821;BME280;8527;49.740;6.604;2023-07-13T00:34:40;99749.84;;;17.70;66.02
16821;BME280;8527;49.740;6.604;2023-07-13T00:39:44;99742.97;;;17.81;65.48
16821;BME280;8527;49.740;6.604;2023-07-13T00:46:02;99742.13;;;17.80;64.47
16821;BME280;8527;49.740;6.604;2023-07-13T00:50:28;99746.72;;;17.73;65.75
16821;BME280;8527;49.740;6.604;2023-07-13T00:55:27;99748.78;;;17.78;65.51
16821;BME280;8527;49.740;6.604;2023-07-13T01:00:27;99748.78;;;17.78;66.58
16821;BME280;8527;49.740;6.604;2023-07-13T01:05:34;99740.28;;;17.81;66.75
16821;BME280;8527;49.740;6.604;2023-07-13T01:10:36;99748.72;;;17.84;65.60
16821;BME280;8527;49.740;6.604;2023-07-13T01:15:41;99751.56;;;17.57;66.89
16821;BME280;8527;49.740;6.604;2023-07-13T01:20:49;99760.59;;;17.70;66.69
16821;BME280;8527;49.740;6.604;2023-07-13T01:25:48;99758.66;;;17.77;67.26
16821;BME280;8527;49.740;6.604;2023-07-13T01:30:46;99773.34;;;17.75;67.32
16821;BME280;8527;49.740;6.604;2023-07-13T01:35:48;99769.81;;;17.81;67.33
16821;BME280;8527;49.740;6.604;2023-07-13T01:40:47;99764.50;;;17.67;66.55
16821;BME280;8527;49.740;6.604;2023-07-13T01:45:51;99769.88;;;17.67;67.08
16821;BME280;8527;49.740;6.604;2023-07-13T01:50:53;99771.31;;;17.70;67.08
16821;BME280;8527;49.740;6.604;2023-07-13T01:55:58;99772.53;;;17.74;66.29
16821;BME280;8527;49.740;6.604;2023-07-13T02:00:56;99778.94;;;17.73;67.87
16821;BME280;8527;49.740;6.604;2023-07-13T02:06:00;99786.41;;;17.64;67.51
16821;BME280;8527;49.740;6.604;2023-07-13T02:11:02;99785.50;;;17.77;67.61
16821;BME280;8527;49.740;6.604;2023-07-13T02:16:04;99785.25;;;17.85;68.88
16821;BME280;8527;49.740;6.604;2023-07-13T02:21:09;99782.66;;;17.72;68.12
16821;BME280;8527;49.740;6.604;2023-07-13T02:26:16;99790.94;;;17.64;68.26
16821;BME280;8527;49.740;6.604;2023-07-13T02:31:15;99793.38;;;17.72;68.38
16821;BME280;8527;49.740;6.604;2023-07-13T02:36:17;99796.94;;;17.59;69.13
16821;BME280;8527;49.740;6.604;2023-07-13T02:41:16;99788.94;;;17.52;69.59
16821;BME280;8527;49.740;6.604;2023-07-13T02:46:16;99785.19;;;17.60;68.68
16821;BME280;8527;49.740;6.604;2023-07-13T02:51:17;99790.91;;;17.70;68.54
16821;BME280;8527;49.740;6.604;2023-07-13T02:56:22;99786.75;;;17.75;68.09
16821;BME280;8527;49.740;6.604;2023-07-13T03:01:24;99790.09;;;17.70;69.62
16821;BME280;8527;49.740;6.604;2023-07-13T03:06:26;99793.78;;;17.69;69.21
16821;BME280;8527;49.740;6.604;2023-07-13T03:11:25;99790.91;;;17.70;69.35
16821;BME280;8527;49.740;6.604;2023-07-13T03:16:24;99796.56;;;17.49;70.11
16821;BME280;8527;49.740;6.604;2023-07-13T03:21:26;99812.91;;;17.47;70.67
16821;BME280;8527;49.740;6.604;2023-07-13T03:26:30;99815.41;;;17.35;70.14
16821;BME280;8527;49.740;6.604;2023-07-13T03:31:34;99812.19;;;17.13;71.82
16821;BME280;8527;49.740;6.604;2023-07-13T03:36:41;99816.31;;;17.15;69.80
16821;BME280;8527;49.740;6.604;2023-07-13T03:41:39;99824.75;;;17.12;70.94
16821;BME280;8527;49.740;6.604;2023-07-13T03:46:38;99831.97;;;17.12;72.12
16821;BME280;8527;49.740;6.604;2023-07-13T03:51:41;99830.31;;;17.18;70.57
16821;BME280;8527;49.740;6.604;2023-07-13T03:56:43;99833.63;;;17.13;70.12
16821;BME280;8527;49.740;6.604;2023-07-13T04:01:43;99835.91;;;17.09;71.08
16821;BME280;8527;49.740;6.604;2023-07-13T04:06:47;99839.19;;;16.98;70.99
16821;BME280;8527;49.740;6.604;2023-07-13T04:11:51;99850.72;;;17.19;70.68
16821;BME280;8527;49.740;6.604;2023-07-13T04:16:51;99848.88;;;17.26;70.51
16821;BME280;8527;49.740;6.604;2023-07-13T04:21:52;99852.97;;;17.22;70.04
16821;BME280;8527;49.740;6.604;2023-07-13T04:26:50;99851.50;;;17.46;69.92
16821;BME280;8527;49.740;6.604;2023-07-13T04:31:49;99857.00;;;17.58;70.16
16821;BME280;8527;49.740;6.604;2023-07-13T04:36:47;99860.84;;;17.82;69.11
16821;BME280;8527;49.740;6.604;2023-07-13T04:41:49;99863.03;;;17.99;69.58
16821;BME280;8527;49.740;6.604;2023-07-13T04:46:47;99858.31;;;18.26;66.60
16821;BME280;8527;49.740;6.604;2023-07-13T04:51:46;99859.59;;;18.24;67.71
16821;BME280;8527;49.740;6.604;2023-07-13T04:56:50;99866.88;;;18.49;67.28
16821;BME280;8527;49.740;6.604;2023-07-13T05:01:48;99874.47;;;18.84;66.97
16821;BME280;8527;49.740;6.604;2023-07-13T05:06:47;99883.34;;;19.10;66.81
16821;BME280;8527;49.740;6.604;2023-07-13T05:11:45;99879.03;;;19.28;66.25
16821;BME280;8527;49.740;6.604;2023-07-13T05:16:46;99879.09;;;19.58;64.08
16821;BME280;8527;49.740;6.604;2023-07-13T05:21:48;99872.72;;;19.90;63.52
16821;BME280;8527;49.740;6.604;2023-07-13T05:26:47;99865.84;;;20.24;61.42
16821;BME280;8527;49.740;6.604;2023-07-13T05:31:51;99877.03;;;20.52;60.99
16821;BME280;8527;49.740;6.604;2023-07-13T05:36:52;99874.81;;;20.61;60.74
16821;BME280;8527;49.740;6.604;2023-07-13T05:41:53;99870.97;;;20.69;60.04
16821;BME280;8527;49.740;6.604;2023-07-13T05:46:56;99870.53;;;20.84;59.67
16821;BME280;8527;49.740;6.604;2023-07-13T05:51:55;99868.06;;;21.06;58.44
16821;BME280;8527;49.740;6.604;2023-07-13T05:56:55;99872.41;;;21.07;58.91
16821;BME280;8527;49.740;6.604;2023-07-13T06:01:56;99877.44;;;21.27;58.51
16821;BME280;8527;49.740;6.604;2023-07-13T06:06:55;99882.69;;;21.70;57.39
16821;BME280;8527;49.740;6.604;2023-07-13T06:11:53;99887.41;;;21.50;57.29
16821;BME280;8527;49.740;6.604;2023-07-13T06:16:51;99887.25;;;21.98;56.43
16821;BME280;8527;49.740;6.604;2023-07-13T06:21:52;99881.44;;;22.18;56.00
16821;BME280;8527;49.740;6.604;2023-07-13T06:26:53;99892.03;;;22.37;54.96
16821;BME280;8527;49.740;6.604;2023-07-13T06:31:52;99885.66;;;22.14;56.68
16821;BME280;8527;49.740;6.604;2023-07-13T06:36:56;99897.66;;;22.65;55.31
16821;BME280;8527;49.740;6.604;2023-07-13T06:41:54;99887.53;;;23.11;53.21
16821;BME280;8527;49.740;6.604;2023-07-13T06:47:03;99896.53;;;23.34;53.46
16821;BME280;8527;49.740;6.604;2023-07-13T06:52:05;99897.97;;;23.02;52.46
16821;BME280;8527;49.740;6.604;2023-07-13T06:57:04;99903.47;;;23.08;54.30
16821;BME280;8527;49.740;6.604;2023-07-13T07:02:04;99902.59;;;23.64;53.10
16821;BME280;8527;49.740;6.604;2023-07-13T07:07:11;99914.00;;;24.10;50.96
16821;BME280;8527;49.740;6.604;2023-07-13T07:12:14;99909.59;;;24.04;49.59
16821;BME280;8527;49.740;6.604;2023-07-13T07:17:16;99901.16;;;24.55;48.94
16821;BME280;8527;49.740;6.604;2023-07-13T07:22:17;99900.53;;;25.19;48.05
16821;BME280;8527;49.740;6.604;2023-07-13T07:27:15;99901.94;;;25.32;47.65
16821;BME280;8527;49.740;6.604;2023-07-13T07:32:14;99902.94;;;25.63;46.69
16821;BME280;8527;49.740;6.604;2023-07-13T07:37:13;99902.81;;;26.01;46.16
16821;BME280;8527;49.740;6.604;2023-07-13T07:42:17;99927.31;;;26.17;44.48
16821;BME280;8527;49.740;6.604;2023-07-13T07:47:15;99926.00;;;26.40;44.22
16821;BME280;8527;49.740;6.604;2023-07-13T07:52:19;99925.22;;;26.50;43.40
16821;BME280;8527;49.740;6.604;2023-07-13T07:57:20;99939.06;;;26.33;43.84
16821;BME280;8527;49.740;6.604;2023-07-13T08:02:18;99927.97;;;25.70;45.05
16821;BME280;8527;49.740;6.604;2023-07-13T08:07:16;99928.63;;;25.93;42.84
16821;BME280;8527;49.740;6.604;2023-07-13T08:12:18;99928.75;;;26.50;42.56
16821;BME280;8527;49.740;6.604;2023-07-13T08:17:19;99926.59;;;26.94;42.75
16821;BME280;8527;49.740;6.604;2023-07-13T08:22:17;99928.50;;;26.62;42.29
16821;BME280;8527;49.740;6.604;2023-07-13T08:27:18;99920.88;;;26.49;43.02
16821;BME280;8527;49.740;6.604;2023-07-13T08:32:21;99920.84;;;27.16;42.00
16821;BME280;8527;49.740;6.604;2023-07-13T08:37:28;99914.50;;;27.47;42.16
16821;BME280;8527;49.740;6.604;2023-07-13T08:42:37;99910.72;;;28.03;41.00
16821;BME280;8527;49.740;6.604;2023-07-13T08:47:46;99926.69;;;28.66;40.37
16821;BME280;8527;49.740;6.604;2023-07-13T08:52:46;99919.75;;;28.84;38.98
16821;BME280;8527;49.740;6.604;2023-07-13T08:57:46;99917.03;;;29.08;37.63
16821;BME280;8527;49.740;6.604;2023-07-13T09:02:54;99912.56;;;29.42;36.99
16821;BME280;8527;49.740;6.604;2023-07-13T09:08:17;99908.25;;;29.11;38.06
16821;BME280;8527;49.740;6.604;2023-07-13T09:13:26;99915.28;;;29.47;36.42
16821;BME280;8527;49.740;6.604;2023-07-13T09:18:34;99912.13;;;29.59;36.80
16821;BME280;8527;49.740;6.604;2023-07-13T09:23:34;99912.38;;;30.01;36.03
16821;BME280;8527;49.740;6.604;2023-07-13T09:28:37;99913.22;;;30.21;36.09
16821;BME280;8527;49.740;6.604;2023-07-13T09:33:40;99920.94;;;30.71;35.98
16821;BME280;8527;49.740;6.604;2023-07-13T09:38:38;99921.09;;;30.03;34.95
16821;BME280;8527;49.740;6.604;2023-07-13T09:44:00;99911.88;;;29.80;36.95
16821;BME280;8527;49.740;6.604;2023-07-13T09:49:01;99901.19;;;30.22;36.39
16821;BME280;8527;49.740;6.604;2023-07-13T09:54:02;99918.59;;;30.97;33.94
16821;BME280;8527;49.740;6.604;2023-07-13T09:59:01;99908.34;;;31.45;34.25
16821;BME280;8527;49.740;6.604;2023-07-13T10:04:10;99920.22;;;31.40;33.05
16821;BME280;8527;49.740;6.604;2023-07-13T10:09:09;99913.13;;;30.45;34.19
16821;BME280;8527;49.740;6.604;2023-07-13T10:14:13;99912.66;;;29.80;34.39
16821;BME280;8527;49.740;6.604;2023-07-13T10:19:21;99923.94;;;30.36;34.18
16821;BME280;8527;49.740;6.604;2023-07-13T10:24:23;99917.91;;;29.76;35.13
16821;BME280;8527;49.740;6.604;2023-07-13T10:29:24;99920.59;;;30.92;33.46
16821;BME280;8527;49.740;6.604;2023-07-13T10:34:27;99927.19;;;31.05;33.30
16821;BME280;8527;49.740;6.604;2023-07-13T10:39:28;99912.69;;;30.38;33.25
16821;BME280;8527;49.740;6.604;2023-07-13T10:44:31;99925.69;;;30.65;33.70
16821;BME280;8527;49.740;6.604;2023-07-13T10:49:35;99929.88;;;31.24;32.75
16821;BME280;8527;49.740;6.604;2023-07-13T10:54:34;99924.13;;;30.40;33.61
16821;BME280;8527;49.740;6.604;2023-07-13T10:59:33;99918.22;;;29.75;34.13
16821;BME280;8527;49.740;6.604;2023-07-13T11:04:43;99932.88;;;29.36;34.00
16821;BME280;8527;49.740;6.604;2023-07-13T11:09:42;99930.25;;;29.25;34.77
16821;BME280;8527;49.740;6.604;2023-07-13T11:15:02;99912.78;;;30.13;33.49
16821;BME280;8527;49.740;6.604;2023-07-13T11:20:24;99911.38;;;29.53;33.19
16821;BME280;8527;49.740;6.604;2023-07-13T11:25:33;99927.50;;;28.66;34.50
16821;BME280;8527;49.740;6.604;2023-07-13T11:30:37;99933.59;;;28.53;34.97
16821;BME280;8527;49.740;6.604;2023-07-13T11:35:57;99923.06;;;28.75;35.35
16821;BME280;8527;49.740;6.604;2023-07-13T11:41:00;99923.00;;;29.10;35.01
16821;BME280;8527;49.740;6.604;2023-07-13T11:46:15;99935.78;;;28.05;36.84
16821;BME280;8527;49.740;6.604;2023-07-13T11:51:19;99934.47;;;27.98;36.98
16821;BME280;8527;49.740;6.604;2023-07-13T11:56:22;99939.22;;;27.71;37.04
16821;BME280;8527;49.740;6.604;2023-07-13T12:01:25;99939.44;;;27.85;37.19
16821;BME280;8527;49.740;6.604;2023-07-13T12:06:32;99945.84;;;27.44;37.95
16821;BME280;8527;49.740;6.604;2023-07-13T12:11:35;99945.91;;;26.98;38.88
16821;BME280;8527;49.740;6.604;2023-07-13T12:16:40;99938.56;;;27.19;38.32
16821;BME280;8527;49.740;6.604;2023-07-13T12:21:41;99946.41;;;27.31;38.47
16821;BME280;8527;49.740;6.604;2023-07-13T12:26:40;99944.25;;;27.17;38.57
16821;BME280;8527;49.740;6.604;2023-07-13T12:31:41;99940.19;;;27.09;37.95
16821;BME280;8527;49.740;6.604;2023-07-13T12:36:46;99943.06;;;27.70;38.07
16821;BME280;8527;49.740;6.604;2023-07-13T12:41:46;99937.63;;;27.65;37.34
16821;BME280;8527;49.740;6.604;2023-07-13T12:47:05;99949.66;;;28.14;37.36
16821;BME280;8527;49.740;6.604;2023-07-13T12:52:14;99945.44;;;27.87;38.00
16821;BME280;8527;49.740;6.604;2023-07-13T12:57:16;99947.97;;;27.68;36.93
16821;BME280;8527;49.740;6.604;2023-07-13T13:02:26;99944.84;;;27.04;37.94
16821;BME280;8527;49.740;6.604;2023-07-13T13:07:29;99951.59;;;26.39;38.81
16821;BME280;8527;49.740;6.604;2023-07-13T13:12:27;99963.06;;;26.72;40.62
16821;BME280;8527;49.740;6.604;2023-07-13T13:17:31;99953.53;;;26.69;37.72
16821;BME280;8527;49.740;6.604;2023-07-13T13:22:32;99953.50;;;26.44;37.97
16821;BME280;8527;49.740;6.604;2023-07-13T13:27:30;99956.78;;;26.61;37.73
16821;BME280;8527;49.740;6.604;2023-07-13T13:32:29;99955.69;;;26.52;38.57
16821;BME280;8527;49.740;6.604;2023-07-13T13:37:27;99962.72;;;26.32;39.19
16821;BME280;8527;49.740;6.604;2023-07-13T13:42:28;99965.16;;;26.29;39.36
16821;BME280;8527;49.740;6.604;2023-07-13T13:47:30;99964.69;;;26.78;39.16
16821;BME280;8527;49.740;6.604;2023-07-13T13:52:30;99962.72;;;26.32;39.52
16821;BME280;8527;49.740;6.604;2023-07-13T13:57:31;99958.38;;;26.47;39.76
16821;BME280;8527;49.740;6.604;2023-07-13T14:02:32;99955.19;;;27.02;39.04
16821;BME280;8527;49.740;6.604;2023-07-13T14:07:31;99948.88;;;27.17;38.51
16821;BME280;8527;49.740;6.604;2023-07-13T14:12:32;99955.69;;;26.67;38.73
16821;BME280;8527;49.740;6.604;2023-07-13T14:17:33;99939.38;;;26.93;38.47
16821;BME280;8527;49.740;6.604;2023-07-13T14:22:45;99948.94;;;26.96;38.91
16821;BME280;8527;49.740;6.604;2023-07-13T14:27:53;99939.09;;;26.43;39.49
16821;BME280;8527;49.740;6.604;2023-07-13T14:33:08;99936.94;;;26.97;40.22
16821;BME280;8527;49.740;6.604;2023-07-13T14:38:23;99928.75;;;27.13;38.70
16821;BME280;8527;49.740;6.604;2023-07-13T14:43:27;99924.69;;;27.05;39.76
16821;BME280;8527;49.740;6.604;2023-07-13T14:48:34;99921.13;;;26.99;39.59
16821;BME280;8527;49.740;6.604;2023-07-13T14:53:33;99921.69;;;26.70;40.22
16821;BME280;8527;49.740;6.604;2023-07-13T14:58:36;99912.13;;;26.73;41.77
16821;BME280;8527;49.740;6.604;2023-07-13T15:03:39;99912.41;;;26.76;40.39
16821;BME280;8527;49.740;6.604;2023-07-13T15:08:46;99901.81;;;26.75;40.90
16821;BME280;8527;49.740;6.604;2023-07-13T15:13:56;99900.44;;;26.72;40.71
16821;BME280;8527;49.740;6.604;2023-07-13T15:19:02;99901.81;;;26.64;40.41
16821;BME280;8527;49.740;6.604;2023-07-13T15:24:03;99909.16;;;26.43;39.93
16821;BME280;8527;49.740;6.604;2023-07-13T15:29:08;99911.88;;;26.64;40.33
16821;BME280;8527;49.740;6.604;2023-07-13T15:34:13;99898.00;;;26.71;39.94
16821;BME280;8527;49.740;6.604;2023-07-13T15:39:14;99906.44;;;26.69;40.36
16821;BME280;8527;49.740;6.604;2023-07-13T15:44:28;99894.47;;;26.54;40.83
16821;BME280;8527;49.740;6.604;2023-07-13T15:49:26;99905.06;;;26.72;40.71
16821;BME280;8527;49.740;6.604;2023-07-13T15:54:25;99900.16;;;26.58;40.17
16821;BME280;8527;49.740;6.604;2023-07-13T15:59:26;99901.28;;;26.93;40.71
16821;BME280;8527;49.740;6.604;2023-07-13T16:04:24;99902.91;;;26.43;40.61
16821;BME280;8527;49.740;6.604;2023-07-13T16:09:23;99889.50;;;26.15;41.83
16821;BME280;8527;49.740;6.604;2023-07-13T16:14:26;99899.91;;;26.49;41.17
16821;BME280;8527;49.740;6.604;2023-07-13T16:19:24;99888.75;;;26.51;40.97
16821;BME280;8527;49.740;6.604;2023-07-13T16:24:24;99882.22;;;26.36;41.18
16821;BME280;8527;49.740;6.604;2023-07-13T16:29:27;99889.00;;;26.18;40.75
16821;BME280;8527;49.740;6.604;2023-07-13T16:34:25;99877.78;;;26.09;40.58
16821;BME280;8527;49.740;6.604;2023-07-13T16:39:26;99875.84;;;25.89;41.04
16821;BME280;8527;49.740;6.604;2023-07-13T16:44:29;99889.44;;;25.79;41.25
16821;BME280;8527;49.740;6.604;2023-07-13T16:49:33;99890.50;;;25.78;41.83
16821;BME280;8527;49.740;6.604;2023-07-13T16:54:37;99887.53;;;25.79;41.85
16821;BME280;8527;49.740;6.604;2023-07-13T16:59:39;99887.22;;;25.70;41.50
16821;BME280;8527;49.740;6.604;2023-07-13T17:04:40;99889.81;;;25.45;41.75
16821;BME280;8527;49.740;6.604;2023-07-13T17:09:41;99890.53;;;25.24;41.28
16821;BME280;8527;49.740;6.604;2023-07-13T17:14:44;99889.75;;;25.29;41.70
16821;BME280;8527;49.740;6.604;2023-07-13T17:19:44;99886.69;;;25.20;41.86
16821;BME280;8527;49.740;6.604;2023-07-13T17:24:47;99892.47;;;25.29;42.07
16821;BME280;8527;49.740;6.604;2023-07-13T17:29:50;99877.31;;;24.95;42.23
16821;BME280;8527;49.740;6.604;2023-07-13T17:34:49;99884.16;;;25.03;42.70
16821;BME280;8527;49.740;6.604;2023-07-13T17:39:48;99898.47;;;24.93;42.85
16821;BME280;8527;49.740;6.604;2023-07-13T17:44:46;99889.00;;;24.96;43.58
16821;BME280;8527;49.740;6.604;2023-07-13T17:49:50;99901.06;;;24.78;43.61
16821;BME280;8527;49.740;6.604;2023-07-13T17:54:51;99894.94;;;24.93;43.55
16821;BME280;8527;49.740;6.604;2023-07-13T17:59:50;99894.66;;;24.89;43.74
16821;BME280;8527;49.740;6.604;2023-07-13T18:04:52;99887.59;;;24.88;44.17
16821;BME280;8527;49.740;6.604;2023-07-13T18:09:55;99899.19;;;24.78;44.03
16821;BME280;8527;49.740;6.604;2023-07-13T18:14:53;99902.25;;;24.59;44.99
16821;BME280;8527;49.740;6.604;2023-07-13T18:19:54;99895.72;;;24.55;44.41
16821;BME280;8527;49.740;6.604;2023-07-13T18:24:52;99905.53;;;24.62;44.89
16821;BME280;8527;49.740;6.604;2023-07-13T18:29:51;99908.66;;;24.48;44.16
16821;BME280;8527;49.740;6.604;2023-07-13T18:34:54;99908.41;;;24.50;44.09
16821;BME280;8527;49.740;6.604;2023-07-13T18:39:53;99911.06;;;24.44;45.25
16821;BME280;8527;49.740;6.604;2023-07-13T18:44:51;99921.50;;;24.58;45.50
16821;BME280;8527;49.740;6.604;2023-07-13T18:49:54;99921.47;;;24.53;45.86
16821;BME280;8527;49.740;6.604;2023-07-13T18:54:56;99918.72;;;24.48;47.45
16821;BME280;8527;49.740;6.604;2023-07-13T18:59:54;99928.13;;;24.40;48.42
16821;BME280;8527;49.740;6.604;2023-07-13T19:04:58;99931.03;;;24.33;49.63
16821;BME280;8527;49.740;6.604;2023-07-13T19:09:59;99928.63;;;24.09;50.16
16821;BME280;8527;49.740;6.604;2023-07-13T19:14:57;99922.81;;;23.78;51.03
16821;BME280;8527;49.740;6.604;2023-07-13T19:20:00;99925.47;;;23.73;51.29
16821;BME280;8527;49.740;6.604;2023-07-13T19:24:58;99933.91;;;23.54;51.35
16821;BME280;8527;49.740;6.604;2023-07-13T19:29:59;99936.38;;;23.56;51.28
16821;BME280;8527;49.740;6.604;2023-07-13T19:35:01;99932.78;;;23.50;51.88
16821;BME280;8527;49.740;6.604;2023-07-13T19:40:05;99929.16;;;23.44;51.33
16821;BME280;8527;49.740;6.604;2023-07-13T19:45:17;99931.31;;;23.08;51.71
16821;BME280;8527;49.740;6.604;2023-07-13T19:50:20;99943.63;;;22.99;53.01
16821;BME280;8527;49.740;6.604;2023-07-13T19:55:20;99936.41;;;22.87;52.44
16821;BME280;8527;49.740;6.604;2023-07-13T20:00:22;99949.69;;;22.72;52.75
16821;BME280;8527;49.740;6.604;2023-07-13T20:05:23;99956.88;;;22.49;53.40
16821;BME280;8527;49.740;6.604;2023-07-13T20:10:25;99960.03;;;22.46;53.59
16821;BME280;8527;49.740;6.604;2023-07-13T20:15:25;99972.97;;;22.44;53.13
16821;BME280;8527;49.740;6.604;2023-07-13T20:20:30;99973.47;;;22.00;55.09
16821;BME280;8527;49.740;6.604;2023-07-13T20:25:33;99978.53;;;21.96;54.66
16821;BME280;8527;49.740;6.604;2023-07-13T20:30:32;99982.44;;;21.64;54.96
16821;BME280;8527;49.740;6.604;2023-07-13T20:35:35;99984.78;;;21.61;54.73
16821;BME280;8527;49.740;6.604;2023-07-13T20:40:34;99984.69;;;21.56;55.44
16821;BME280;8527;49.740;6.604;2023-07-13T20:45:34;99982.69;;;21.39;56.39
16821;BME280;8527;49.740;6.604;2023-07-13T20:50:35;99978.13;;;21.28;56.57
16821;BME280;8527;49.740;6.604;2023-07-13T20:55:34;99985.38;;;21.27;55.92
16821;BME280;8527;49.740;6.604;2023-07-13T21:00:32;99978.91;;;21.28;56.27
16821;BME280;8527;49.740;6.604;2023-07-13T21:05:36;99980.00;;;21.15;56.50
16821;BME280;8527;49.740;6.604;2023-07-13T21:10:39;99990.63;;;20.98;55.84
16821;BME280;8527;49.740;6.604;2023-07-13T21:15:39;99992.00;;;20.89;56.69
16821;BME280;8527;49.740;6.604;2023-07-13T21:20:41;99993.81;;;20.76;57.60
16821;BME280;8527;49.740;6.604;2023-07-13T21:25:47;100001.31;;;20.62;57.79
16821;BME280;8527;49.740;6.604;2023-07-13T21:30:46;99999.97;;;20.53;58.14
16821;BME280;8527;49.740;6.604;2023-07-13T21:35:47;100013.41;;;20.22;59.65
16821;BME280;8527;49.740;6.604;2023-07-13T21:40:50;100009.00;;;20.28;59.62
16821;BME280;8527;49.740;6.604;2023-07-13T21:45:53;100005.88;;;20.13;58.48
16821;BME280;8527;49.740;6.604;2023-07-13T21:51:04;100004.53;;;20.03;59.69
16821;BME280;8527;49.740;6.604;2023-07-13T21:56:10;100007.63;;;19.81;60.13
16821;BME280;8527;49.740;6.604;2023-07-13T22:01:14;100007.84;;;19.61;61.39
16821;BME280;8527;49.740;6.604;2023-07-13T22:06:21;100007.41;;;19.83;60.76
16821;BME280;8527;49.740;6.604;2023-07-13T22:11:24;100019.84;;;19.84;60.64
16821;BME280;8527;49.740;6.604;2023-07-13T22:16:29;100006.31;;;19.47;61.17
16821;BME280;8527;49.740;6.604;2023-07-13T22:21:38;99994.97;;;19.45;61.85
16821;BME280;8527;49.740;6.604;2023-07-13T22:26:36;99995.09;;;19.31;63.01
16821;BME280;8527;49.740;6.604;2023-07-13T22:31:35;99993.81;;;19.08;63.11
16821;BME280;8527;49.740;6.604;2023-07-13T22:36:34;99989.09;;;18.97;64.03
16821;BME280;8527;49.740;6.604;2023-07-13T22:41:35;99982.84;;;18.78;64.09
16821;BME280;8527;49.740;6.604;2023-07-13T22:46:33;99991.84;;;18.90;64.62
16821;BME280;8527;49.740;6.604;2023-07-13T22:51:31;100003.25;;;18.86;64.31
16821;BME280;8527;49.740;6.604;2023-07-13T22:56:41;100010.06;;;18.88;64.85
16821;BME280;8527;49.740;6.604;2023-07-13T23:01:41;99996.16;;;18.66;66.81
16821;BME280;8527;49.740;6.604;2023-07-13T23:06:42;99985.84;;;18.56;66.76
16821;BME280;8527;49.740;6.604;2023-07-13T23:11:44;99985.94;;;18.42;66.79
16821;BME280;8527;49.740;6.604;2023-07-13T23:16:43;99978.44;;;18.51;66.31
16821;BME280;8527;49.740;6.604;2023-07-13T23:21:43;99974.44;;;18.28;66.36
16821;BME280;8527;49.740;6.604;2023-07-13T23:26:52;99980.91;;;18.07;67.15
16821;BME280;8527;49.740;6.604;2023-07-13T23:31:53;99982.78;;;18.07;68.66
16821;BME280;8527;49.740;6.604;2023-07-13T23:36:54;99978.88;;;18.09;68.01
16821;BME280;8527;49.740;6.604;2023-07-13T23:41:56;99971.06;;;17.88;67.12
16821;BME280;8527;49.740;6.604;2023-07-13T23:46:57;99971.25;;;17.86;68.97
16821;BME280;8527;49.740;6.604;2023-07-13T23:51:57;99976.69;;;17.59;67.93
16821;BME280;8527;49.740;6.604;2023-07-13T23:56:59;99968.63;;;17.66;69.53
